Union Star, KY

11:28 PM CST on December 26, 2014 (GMT -0600)
Old Weldon | Change Station
CLOSE
Current Station
Personal Weather Station
Location: Brandenburg, KY
Elevation: 636 ft
Nearby Weather Stations

Elev 636 ft 37.97 °N, 86.13 °W | Updated 59 seconds ago

Overcast
Overcast
48.2 °F
Feels Like 48 °F
N
3.0
Wind Variable Wind from SSW
Gusts 8.0 mph

Today
High -- | Low -- °F
--% Chance of Precip.
Yesterday
High -- | Low -- °F
Precip. -- in
7:00 AM 4:32 PM
Waxing Crescent, 33% visible
Pressure 30.20 in
Visibility 10.0 miles
Clouds Scattered Clouds 7500 ft
Overcast 12000 ft
Windchill 48 °F
Dew Point 37 °F
Humidity 65%
Rainfall 0.00 in
Snow Depth Not available.
UV 0 out of 12
Pollen .10 out of 12
Air Quality Not available.
Flu Activity Not available.
METAR KFTK 270458Z AUTO 18008KT 10SM SCT075 OVC120 08/02 A3018 RMK AO2 SLP225 T00820015 401291009

More Conditions Fewer Conditions

Pressure 30.20 in
Visibility 10.0 miles
Clouds Scattered Clouds 7500 ft
Overcast 12000 ft
Windchill 48 °F
Dew Point 37 °F
Humidity 65%
Rainfall 0.00 in
Snow Depth Not available.
UV 0 out of 12
Pollen .10 out of 12
Air Quality Not available.
Flu Activity Not available.
METAR KFTK 270458Z AUTO 18008KT 10SM SCT075 OVC120 08/02 A3018 RMK AO2 SLP225 T00820015 401291009

More Conditions Fewer Conditions

10-Day Weather Forecast

Almanac

Astronomy

Dec. 26, 2014 Rise Set
Actual Time
Civil Twilight
Nautical Twilight
Astronomical Twilight
Moon
Length of Visible Light
Length of Day
Tomorrow will be .
, % of the Moon is Illuminated

Today's Extremes

State Highs State Lows

Community

WunderPhotos

Upload Photos

1,780,848 photos uploaded!

WunderBlogs® & News

Nearby

Air Quality

  Air Quality AQ Index Pollutant
Not available.

Snow Depth

Station Depth Elevation

Earthquake Activity

City Distance Mag. Time & Date
Minimum magnitude displayed is 2.5.

Coastal Water Temperatures

Place Temperature

Nearby Weather Stations